Skye — WDG4178 — position and weather

sailwx.info

Track history (hours):
 
Tides and Currents Weather Stations Pressure Air Temp Water Temp Dewpoint Dewpoint Depression Visibility Wind Speed Wind Dir Waves Ship Positions

Skye

Owner: Worthington, Ralph, New York, NY. More information available from US FCC via Universal Licensing System and Coast Guard Vessel Documentation Center.

Last reported at 2015-Jul-27 08:33 UTC. Time now 2015-Jul-28 15:23 UTC.
Position N 37°44' E 023°26'.

Length 13 m.

Type: Sailing vessel. MMSI: 367533820.

Date/timePositionNaut miles runAvg speedWind from/ knotsBaromVisibWave heightAir tempDewpointWater temp
2015-Jul-27 08:33N 37°44' E 023°26'0 0.0
2015-Jul-27 07:29N 37°44' E 023°26'0 0.0
2015-Jul-27 06:32N 37°44' E 023°26'0 0.0
2015-Jul-27 05:32N 37°44' E 023°26'0 0.0
2015-Jul-26 17:12N 37°44' E 023°26'0 0.0
2015-Jul-26 16:30N 37°44' E 023°26'0 0.0
2015-Jul-26 15:33N 37°44' E 023°26'0 0.0
2015-Jul-26 14:30N 37°44' E 023°26'0 0.0
2015-Jul-26 13:27N 37°44' E 023°26'0 0.0
2015-Jul-26 12:18N 37°44' E 023°26'0 0.0
2015-Jul-26 11:33N 37°44' E 023°26'0 0.0
2015-Jul-26 10:33N 37°44' E 023°26'0 0.0
2015-Jul-26 09:33N 37°44' E 023°26'0 0.0
2015-Jul-26 08:18N 37°44' E 023°26'0 0.0
2015-Jul-26 07:33N 37°44' E 023°26'0 0.0
2015-Jul-26 06:33N 37°44' E 023°26'0 0.0
2015-Jul-26 05:33N 37°44' E 023°26'0 0.0
2015-Jul-26 04:06N 37°44' E 023°26'0 0.0
2015-Jul-25 23:24N 37°44' E 023°26'0 0.0
2015-Jul-25 22:30N 37°44' E 023°26'0 0.0
2015-Jul-25 21:33N 37°44' E 023°26'0 0.0
2015-Jul-25 20:30N 37°44' E 023°26'0 0.0
2015-Jul-25 18:24N 37°44' E 023°26'0 0.0
2015-Jul-25 15:33N 37°44' E 023°26'0 0.0
2015-Jul-25 14:09N 37°44' E 023°26'0 0.0
2015-Jul-25 13:30N 37°44' E 023°26'0 0.0
2015-Jul-25 11:24N 37°44' E 023°26'3 3.9
2015-Jul-25 10:33N 37°47' E 023°28'5 4.9
2015-Jul-25 09:33N 37°51' E 023°33'6 6.2
2015-Jul-25 08:33N 37°55' E 023°38'1 1.2
2015-Jul-25 07:32N 37°56' E 023°39'2 1.8
2015-Jul-25 06:33N 37°56' E 023°37'6 6.3
2015-Jul-25 05:33N 37°53' E 023°30'2 0.1
2015-Jul-24 14:32N 37°53' E 023°28'0 0.2
2015-Jul-24 13:33N 37°53' E 023°28'5 4.6
2015-Jul-24 12:33N 37°55' E 023°33'5 4.9
2015-Jul-24 11:33N 37°56' E 023°39'1 0.1
2015-Jul-23 14:33N 37°57' E 023°40'1 1.0
2015-Jul-23 13:33N 37°56' E 023°40'6 6.5
2015-Jul-23 12:33N 37°52' E 023°33'5 4.9
2015-Jul-23 11:32N 37°49' E 023°28'2 2.1
2015-Jul-23 10:33N 37°47' E 023°27'3 2.6
2015-Jul-23 09:31N 37°44' E 023°26'0 0.0
2015-Jul-23 08:24N 37°44' E 023°26'0 0.0
2015-Jul-23 07:33N 37°44' E 023°26'0 0.0
2015-Jul-22 20:28N 37°44' E 023°26'0 0.0
2015-Jul-22 19:31N 37°44' E 023°26'0 0.0
2015-Jul-22 18:16N 37°44' E 023°26'0 0.0
2015-Jul-22 13:28N 37°44' E 023°26'4 4.4
2015-Jul-22 12:32N 37°40' E 023°26'9 4.3
2015-Jul-22 10:33N 37°32' E 023°25'8 0.4
2015-Jul-21 15:04N 37°40' E 023°25'4 5.7
2015-Jul-21 14:18N 37°44' E 023°25'1 0.0
2015-Jul-20 15:14N 37°44' E 023°26'  
2015-Jul-17 22:28N 37°56' E 015°41'5 5.2
2015-Jul-17 21:33N 37°60' E 015°38'5 5.2
2015-Jul-17 20:33N 38°05' E 015°37'6 5.8
2015-Jul-17 19:33N 38°11' E 015°34'6 5.6
2015-Jul-17 18:33N 38°15' E 015°38'5 4.4
2015-Jul-17 17:29N 38°19' E 015°34'7 6.9
2015-Jul-17 16:33N 38°19' E 015°26'6 5.9
2015-Jul-17 15:33N 38°18' E 015°18'6 5.9
2015-Jul-17 14:33N 38°18' E 015°11'6 6.1
2015-Jul-17 13:30N 38°18' E 015°03'  
Track history (hours):
 
Tides and Currents Weather Stations Pressure Air Temp Water Temp Dewpoint Dewpoint Depression Visibility Wind Speed Wind Dir Waves Ship Positions

Skye

Owner: Worthington, Ralph, New York, NY. More information available from US FCC via Universal Licensing System and Coast Guard Vessel Documentation Center.

Last reported at 2015-Jul-27 08:33 UTC. Time now 2015-Jul-28 15:23 UTC.
Position N 37°44' E 023°26'.

Length 13 m.

Type: Sailing vessel. MMSI: 367533820.

Date/timePositionNaut miles runAvg speedWind from/ knotsBaromVisibWave heightAir tempDewpointWater temp
2015-Jul-27 08:33N 37°44' E 023°26'0 0.0
2015-Jul-27 07:29N 37°44' E 023°26'0 0.0
2015-Jul-27 06:32N 37°44' E 023°26'0 0.0
2015-Jul-27 05:32N 37°44' E 023°26'0 0.0
2015-Jul-26 17:12N 37°44' E 023°26'0 0.0
2015-Jul-26 16:30N 37°44' E 023°26'0 0.0
2015-Jul-26 15:33N 37°44' E 023°26'0 0.0
2015-Jul-26 14:30N 37°44' E 023°26'0 0.0
2015-Jul-26 13:27N 37°44' E 023°26'0 0.0
2015-Jul-26 12:18N 37°44' E 023°26'0 0.0
2015-Jul-26 11:33N 37°44' E 023°26'0 0.0
2015-Jul-26 10:33N 37°44' E 023°26'0 0.0
2015-Jul-26 09:33N 37°44' E 023°26'0 0.0
2015-Jul-26 08:18N 37°44' E 023°26'0 0.0
2015-Jul-26 07:33N 37°44' E 023°26'0 0.0
2015-Jul-26 06:33N 37°44' E 023°26'0 0.0
2015-Jul-26 05:33N 37°44' E 023°26'0 0.0
2015-Jul-26 04:06N 37°44' E 023°26'0 0.0
2015-Jul-25 23:24N 37°44' E 023°26'0 0.0
2015-Jul-25 22:30N 37°44' E 023°26'0 0.0
2015-Jul-25 21:33N 37°44' E 023°26'0 0.0
2015-Jul-25 20:30N 37°44' E 023°26'0 0.0
2015-Jul-25 18:24N 37°44' E 023°26'0 0.0
2015-Jul-25 15:33N 37°44' E 023°26'0 0.0
2015-Jul-25 14:09N 37°44' E 023°26'0 0.0
2015-Jul-25 13:30N 37°44' E 023°26'0 0.0
2015-Jul-25 11:24N 37°44' E 023°26'3 3.9
2015-Jul-25 10:33N 37°47' E 023°28'5 4.9
2015-Jul-25 09:33N 37°51' E 023°33'6 6.2
2015-Jul-25 08:33N 37°55' E 023°38'1 1.2
2015-Jul-25 07:32N 37°56' E 023°39'2 1.8
2015-Jul-25 06:33N 37°56' E 023°37'6 6.3
2015-Jul-25 05:33N 37°53' E 023°30'2 0.1
2015-Jul-24 14:32N 37°53' E 023°28'0 0.2
2015-Jul-24 13:33N 37°53' E 023°28'5 4.6
2015-Jul-24 12:33N 37°55' E 023°33'5 4.9
2015-Jul-24 11:33N 37°56' E 023°39'1 0.1
2015-Jul-23 14:33N 37°57' E 023°40'1 1.0
2015-Jul-23 13:33N 37°56' E 023°40'6 6.5
2015-Jul-23 12:33N 37°52' E 023°33'5 4.9
2015-Jul-23 11:32N 37°49' E 023°28'2 2.1
2015-Jul-23 10:33N 37°47' E 023°27'3 2.6
2015-Jul-23 09:31N 37°44' E 023°26'0 0.0
2015-Jul-23 08:24N 37°44' E 023°26'0 0.0
2015-Jul-23 07:33N 37°44' E 023°26'0 0.0
2015-Jul-22 20:28N 37°44' E 023°26'0 0.0
2015-Jul-22 19:31N 37°44' E 023°26'0 0.0
2015-Jul-22 18:16N 37°44' E 023°26'0 0.0
2015-Jul-22 13:28N 37°44' E 023°26'4 4.4
2015-Jul-22 12:32N 37°40' E 023°26'9 4.3
2015-Jul-22 10:33N 37°32' E 023°25'8 0.4
2015-Jul-21 15:04N 37°40' E 023°25'4 5.7
2015-Jul-21 14:18N 37°44' E 023°25'1 0.0
2015-Jul-20 15:14N 37°44' E 023°26'  
2015-Jul-17 22:28N 37°56' E 015°41'5 5.2
2015-Jul-17 21:33N 37°60' E 015°38'5 5.2
2015-Jul-17 20:33N 38°05' E 015°37'6 5.8
2015-Jul-17 19:33N 38°11' E 015°34'6 5.6
2015-Jul-17 18:33N 38°15' E 015°38'5 4.4
2015-Jul-17 17:29N 38°19' E 015°34'7 6.9
2015-Jul-17 16:33N 38°19' E 015°26'6 5.9
2015-Jul-17 15:33N 38°18' E 015°18'6 5.9
2015-Jul-17 14:33N 38°18' E 015°11'6 6.1
2015-Jul-17 13:30N 38°18' E 015°03'  

Dump ship's entire track history